Time;durP1;ratioP1;P1;durP2;ratioP2;P2;SDS_P1;SDS_P2;PMS_P1;PMS_P2;Temp;Humidity;BMP_temperature;BMP_pressure;BME280_temperature;BME280_humidity;BME280_pressure;Samples;Min_cycle;Max_cycle;Signal;HPM_P1;HPM_P2
2023/07/24 00:00:19;;;;;;;32.13;29.33;;;17.70;94.10;;;;;;5073938;28;20639;-88
2023/07/24 00:02:45;;;;;;;30.30;27.95;;;17.70;94.20;;;;;;5073970;28;20178;-89
2023/07/24 00:05:10;;;;;;;29.80;27.55;;;17.70;94.20;;;;;;5074437;28;20561;-89
2023/07/24 00:07:36;;;;;;;30.58;28.38;;;17.70;94.20;;;;;;5074068;28;20643;-89
2023/07/24 00:10:02;;;;;;;29.35;27.25;;;17.70;94.20;;;;;;5074888;28;20567;-90
2023/07/24 00:12:27;;;;;;;29.80;27.50;;;17.70;94.10;;;;;;5072941;28;20171;-90
2023/07/24 00:14:53;;;;;;;31.70;28.95;;;17.70;94.10;;;;;;5072775;28;20253;-90
2023/07/24 00:17:19;;;;;;;32.08;29.50;;;17.70;94.10;;;;;;5073058;28;20167;-91
2023/07/24 00:19:44;;;;;;;33.15;30.35;;;17.70;94.00;;;;;;5074369;28;20188;-91
2023/07/24 00:22:10;;;;;;;30.52;28.45;;;17.60;94.10;;;;;;5073333;28;20191;-90
2023/07/24 00:24:35;;;;;;;32.00;29.70;;;17.70;94.20;;;;;;5072619;28;20608;-90
2023/07/24 00:27:01;;;;;;;33.50;30.85;;;17.70;94.20;;;;;;5074007;28;20175;-90
2023/07/24 00:29:27;;;;;;;33.28;30.88;;;17.60;94.20;;;;;;5074902;28;20199;-90
2023/07/24 00:31:52;;;;;;;32.08;29.70;;;17.60;94.20;;;;;;5073798;28;20220;-89
2023/07/24 00:34:18;;;;;;;34.80;32.13;;;17.60;94.30;;;;;;5073877;28;20249;-89
2023/07/24 00:36:43;;;;;;;32.05;29.35;;;17.50;94.30;;;;;;5073263;28;20172;-89
2023/07/24 00:39:09;;;;;;;32.47;29.90;;;17.60;94.40;;;;;;5073014;28;20178;-90
2023/07/24 00:41:34;;;;;;;33.00;30.50;;;17.60;94.30;;;;;;5073281;28;20183;-89
2023/07/24 00:44:00;;;;;;;31.98;29.67;;;17.70;94.30;;;;;;5073414;28;20211;-89
2023/07/24 00:46:25;;;;;;;32.72;30.23;;;17.60;94.20;;;;;;5073489;28;20605;-89
2023/07/24 00:48:53;;;;;;;32.40;29.60;;;17.50;94.30;;;;;;5073499;28;20183;-91
2023/07/24 00:51:19;;;;;;;33.88;31.02;;;17.60;94.40;;;;;;5073987;28;20182;-91
2023/07/24 00:53:47;;;;;;;33.47;31.08;;;17.60;94.30;;;;;;5073513;28;20196;-91
2023/07/24 00:56:13;;;;;;;36.20;33.35;;;17.50;94.40;;;;;;5073102;28;20178;-90
2023/07/24 00:58:39;;;;;;;34.40;31.55;;;17.50;94.40;;;;;;5073743;28;20168;-90
2023/07/24 01:01:05;;;;;;;33.97;31.17;;;17.50;94.40;;;;;;5073655;28;20222;-89
2023/07/24 01:03:33;;;;;;;34.58;31.33;;;17.50;94.30;;;;;;5078836;28;20198;-89
2023/07/24 01:06:01;;;;;;;34.55;31.85;;;17.50;94.30;;;;;;5078756;28;20193;-89
2023/07/24 01:08:26;;;;;;;31.92;29.73;;;17.50;94.50;;;;;;5078532;28;20168;-89
2023/07/24 01:10:52;;;;;;;33.70;31.20;;;17.50;94.40;;;;;;5078384;28;20209;-89
2023/07/24 01:13:25;;;;;;;32.13;29.92;;;17.50;94.50;;;;;;5078397;28;20262;-89
2023/07/24 01:16:07;;;;;;;33.45;30.95;;;17.50;94.60;;;;;;5078438;28;20169;-88
2023/07/24 01:18:34;;;;;;;31.23;28.83;;;17.60;94.50;;;;;;5079282;28;20169;-89
2023/07/24 01:21:01;;;;;;;31.55;28.95;;;17.70;94.50;;;;;;5078278;28;20187;-89
2023/07/24 01:23:55;;;;;;;33.53;30.90;;;17.60;94.50;;;;;;5078336;28;20206;-89
2023/07/24 01:26:23;;;;;;;33.30;30.27;;;17.60;94.50;;;;;;5079596;28;20580;-88
2023/07/24 01:28:49;;;;;;;32.63;29.95;;;17.60;94.50;;;;;;5078203;28;20229;-88
2023/07/24 01:31:16;;;;;;;33.08;29.85;;;17.50;94.60;;;;;;5079603;28;20748;-88
2023/07/24 01:33:42;;;;;;;33.60;30.98;;;17.50;94.50;;;;;;5078183;28;20273;-89
2023/07/24 01:36:07;;;;;;;32.67;30.23;;;17.50;94.70;;;;;;5078352;28;20199;-89
2023/07/24 01:38:34;;;;;;;31.85;29.25;;;17.50;94.70;;;;;;5078117;28;20171;-88
2023/07/24 01:41:00;;;;;;;30.42;28.23;;;17.50;94.60;;;;;;5078219;28;20179;-89
2023/07/24 01:43:27;;;;;;;29.92;27.48;;;17.60;94.50;;;;;;5078047;28;20206;-88
2023/07/24 01:45:53;;;;;;;32.38;29.52;;;17.60;94.50;;;;;;5078387;28;20204;-88
2023/07/24 01:48:18;;;;;;;32.00;29.42;;;17.60;94.40;;;;;;5077985;28;20183;-89
2023/07/24 01:50:44;;;;;;;31.90;29.63;;;17.50;94.40;;;;;;5078312;28;20210;-89
2023/07/24 01:53:09;;;;;;;34.50;31.38;;;17.40;94.60;;;;;;5077991;28;20167;-89
2023/07/24 01:55:35;;;;;;;31.25;28.75;;;17.40;94.60;;;;;;5078074;28;20171;-89
2023/07/24 01:58:00;;;;;;;32.95;30.23;;;17.40;94.70;;;;;;5078032;28;20179;-88
2023/07/24 02:00:26;;;;;;;33.13;30.42;;;17.50;94.70;;;;;;5078021;28;20172;-88
2023/07/24 02:02:52;;;;;;;31.92;29.63;;;17.40;94.70;;;;;;5077908;28;20175;-89
2023/07/24 02:05:17;;;;;;;34.92;31.65;;;17.40;94.70;;;;;;5077900;28;20203;-89
2023/07/24 02:07:43;;;;;;;36.13;32.83;;;17.40;94.80;;;;;;5077913;28;20353;-89
2023/07/24 02:10:09;;;;;;;32.75;30.35;;;17.40;94.90;;;;;;5077847;28;20195;-88
2023/07/24 02:12:34;;;;;;;34.10;31.50;;;17.40;94.90;;;;;;5077069;28;20661;-89
2023/07/24 02:15:00;;;;;;;34.45;32.03;;;17.30;94.80;;;;;;5075427;28;20195;-89
2023/07/24 02:17:26;;;;;;;34.95;32.35;;;17.30;94.90;;;;;;5074934;28;20182;-89
2023/07/24 02:19:51;;;;;;;35.20;32.50;;;17.30;94.90;;;;;;5074568;28;20708;-89
2023/07/24 02:22:17;;;;;;;35.25;32.33;;;17.30;94.90;;;;;;5076820;28;20244;-89
2023/07/24 02:24:42;;;;;;;35.88;33.10;;;17.30;94.80;;;;;;5075089;28;20191;-89
2023/07/24 02:27:11;;;;;;;35.40;32.90;;;17.30;94.80;;;;;;5075012;28;20210;-89
2023/07/24 02:29:37;;;;;;;35.88;33.15;;;17.30;94.80;;;;;;5074620;28;20219;-89
2023/07/24 02:32:03;;;;;;;34.83;32.22;;;17.30;94.70;;;;;;5074550;28;20647;-88
2023/07/24 02:34:28;;;;;;;35.53;32.92;;;17.40;94.60;;;;;;5074391;28;20202;-89
2023/07/24 02:36:54;;;;;;;34.88;32.22;;;17.40;94.60;;;;;;5075584;28;20254;-88
2023/07/24 02:39:20;;;;;;;34.20;31.63;;;17.40;94.60;;;;;;5074437;28;20534;-89
2023/07/24 02:41:48;;;;;;;34.72;31.88;;;17.40;94.60;;;;;;5075588;28;20203;-89
2023/07/24 02:44:13;;;;;;;34.83;32.33;;;17.40;94.50;;;;;;5074083;28;20199;-89
2023/07/24 02:46:39;;;;;;;35.97;33.08;;;17.40;94.50;;;;;;5074144;28;20599;-89
2023/07/24 02:49:05;;;;;;;35.17;32.45;;;17.40;94.40;;;;;;5075248;28;20245;-88
2023/07/24 02:51:31;;;;;;;36.08;33.30;;;17.40;94.30;;;;;;5075592;28;20163;-90
2023/07/24 02:53:56;;;;;;;36.40;33.20;;;17.40;94.10;;;;;;5073799;28;20240;-89
2023/07/24 02:56:22;;;;;;;36.75;33.67;;;17.40;94.10;;;;;;5074814;28;20214;-89
2023/07/24 02:58:47;;;;;;;36.88;34.30;;;17.30;94.20;;;;;;5073789;28;20190;-89
2023/07/24 03:01:14;;;;;;;35.95;33.40;;;17.30;94.20;;;;;;5074787;28;20236;-89
2023/07/24 03:03:40;;;;;;;37.78;35.00;;;17.30;94.30;;;;;;5074029;28;20202;-89
2023/07/24 03:06:06;;;;;;;36.38;33.67;;;17.30;94.30;;;;;;5073757;28;20198;-88
2023/07/24 03:08:32;;;;;;;36.67;33.88;;;17.30;94.40;;;;;;5073776;28;20167;-89
2023/07/24 03:10:58;;;;;;;36.90;33.95;;;17.20;94.50;;;;;;5073582;28;20266;-89
2023/07/24 03:13:24;;;;;;;39.33;36.33;;;17.30;94.60;;;;;;5073616;28;20218;-89
2023/07/24 03:15:57;;;;;;;36.67;34.08;;;17.30;94.70;;;;;;5073656;28;20199;-89
2023/07/24 03:18:23;;;;;;;35.20;32.55;;;17.30;94.70;;;;;;5074410;28;20177;-88
2023/07/24 03:20:48;;;;;;;36.28;33.63;;;17.30;94.80;;;;;;5073266;28;20187;-89
2023/07/24 03:23:14;;;;;;;36.50;33.85;;;17.30;94.70;;;;;;5073368;28;20579;-89
2023/07/24 03:25:40;;;;;;;35.60;32.70;;;17.30;94.70;;;;;;5073462;28;20677;-89
2023/07/24 03:28:06;;;;;;;37.03;34.28;;;17.40;94.70;;;;;;5074531;28;20248;-89
2023/07/24 03:30:31;;;;;;;38.67;35.75;;;17.40;94.70;;;;;;5073429;28;20222;-88
2023/07/24 03:32:57;;;;;;;39.10;35.92;;;17.40;94.70;;;;;;5073184;28;20183;-89
2023/07/24 03:35:23;;;;;;;37.50;34.72;;;17.50;94.70;;;;;;5073431;28;20195;-89
2023/07/24 03:37:48;;;;;;;41.88;38.50;;;17.50;94.60;;;;;;5073148;28;20175;-89
2023/07/24 03:40:15;;;;;;;39.72;36.47;;;17.40;94.50;;;;;;5072973;28;20187;-89
2023/07/24 03:42:41;;;;;;;39.70;36.47;;;17.50;94.40;;;;;;5073183;28;20182;-89
2023/07/24 03:45:07;;;;;;;39.05;36.00;;;17.40;94.30;;;;;;5074395;28;20192;-88
2023/07/24 03:47:33;;;;;;;39.30;36.60;;;17.50;94.00;;;;;;5072930;28;20182;-89
2023/07/24 03:49:58;;;;;;;37.92;35.22;;;17.50;94.00;;;;;;5073657;28;20199;-89
2023/07/24 03:52:24;;;;;;;38.28;35.08;;;17.50;93.90;;;;;;5074014;28;20602;-89
2023/07/24 03:54:50;;;;;;;38.35;35.55;;;17.50;94.00;;;;;;5073213;28;20286;-89
2023/07/24 03:57:16;;;;;;;40.45;37.55;;;17.50;94.00;;;;;;5072674;28;20175;-89
2023/07/24 03:59:41;;;;;;;40.42;37.40;;;17.50;94.00;;;;;;5072618;28;20663;-89
2023/07/24 04:02:07;;;;;;;42.25;38.60;;;17.50;93.90;;;;;;5072750;28;20172;-88
2023/07/24 04:04:32;;;;;;;40.72;37.75;;;17.50;93.60;;;;;;5073889;28;20639;-89
2023/07/24 04:06:58;;;;;;;42.88;39.50;;;17.50;93.60;;;;;;5072698;28;20167;-89
2023/07/24 04:09:24;;;;;;;41.58;38.47;;;17.50;93.60;;;;;;5073875;28;20640;-89
2023/07/24 04:11:49;;;;;;;41.75;38.45;;;17.50;93.60;;;;;;5072493;28;20178;-89
2023/07/24 04:14:15;;;;;;;41.67;38.78;;;17.40;93.60;;;;;;5072389;28;20604;-88
2023/07/24 04:16:40;;;;;;;40.45;37.72;;;17.50;93.60;;;;;;5072474;28;20202;-89
2023/07/24 04:19:06;;;;;;;42.05;38.58;;;17.50;93.60;;;;;;5072414;28;20213;-89
2023/07/24 04:21:31;;;;;;;42.05;39.15;;;17.50;93.40;;;;;;5072116;28;20658;-89
2023/07/24 04:23:57;;;;;;;42.33;39.20;;;17.50;93.30;;;;;;5072093;28;20276;-89
2023/07/24 04:26:22;;;;;;;42.78;39.67;;;17.50;93.30;;;;;;5073050;28;20257;-89
2023/07/24 04:28:48;;;;;;;43.45;40.47;;;17.50;93.30;;;;;;5072217;28;20171;-89
2023/07/24 04:31:13;;;;;;;43.22;39.95;;;17.50;93.20;;;;;;5072555;28;20638;-89
2023/07/24 04:33:39;;;;;;;42.05;38.95;;;17.50;93.00;;;;;;5072361;28;20734;-89
2023/07/24 04:36:05;;;;;;;40.35;37.55;;;17.50;92.90;;;;;;5073239;28;20639;-89
2023/07/24 04:38:30;;;;;;;42.17;39.03;;;17.50;92.70;;;;;;5072136;28;20520;-90
2023/07/24 04:40:56;;;;;;;44.97;41.30;;;17.50;92.60;;;;;;5072158;28;20217;-89
2023/07/24 04:43:21;;;;;;;39.22;36.22;;;17.50;92.60;;;;;;5072896;28;20170;-89
2023/07/24 04:45:47;;;;;;;40.70;37.80;;;17.60;92.20;;;;;;5072002;28;20656;-88
2023/07/24 04:48:12;;;;;;;39.88;36.92;;;17.60;92.30;;;;;;5072031;28;20286;-88
2023/07/24 04:50:38;;;;;;;40.03;37.00;;;17.50;92.20;;;;;;5071847;28;20199;-89
2023/07/24 04:53:03;;;;;;;41.50;38.38;;;17.60;92.20;;;;;;5072228;28;20638;-88
2023/07/24 04:55:29;;;;;;;42.88;39.60;;;17.60;92.30;;;;;;5072915;28;20199;-89
2023/07/24 04:57:54;;;;;;;40.45;37.65;;;17.60;92.30;;;;;;5071927;28;20194;-89
2023/07/24 05:00:20;;;;;;;39.55;36.78;;;17.60;92.20;;;;;;5072410;28;20205;-89
2023/07/24 05:02:45;;;;;;;40.75;37.65;;;17.60;92.10;;;;;;5071773;28;20647;-89
2023/07/24 05:05:11;;;;;;;38.85;36.17;;;17.60;92.20;;;;;;5071765;28;20201;-89
2023/07/24 05:07:36;;;;;;;41.50;38.15;;;17.60;92.30;;;;;;5071873;28;20639;-89
2023/07/24 05:10:02;;;;;;;39.97;36.92;;;17.60;92.40;;;;;;5072266;28;20206;-89
2023/07/24 05:12:27;;;;;;;40.35;37.53;;;17.60;92.40;;;;;;5072280;28;20183;-88
2023/07/24 05:14:53;;;;;;;41.35;38.45;;;17.70;92.50;;;;;;5071776;28;20198;-89
2023/07/24 05:17:18;;;;;;;42.35;39.30;;;17.70;92.50;;;;;;5073465;28;20643;-88
2023/07/24 05:19:44;;;;;;;40.95;38.13;;;17.80;92.50;;;;;;5072870;28;20223;-89
2023/07/24 05:22:10;;;;;;;41.60;38.78;;;17.80;92.30;;;;;;5073279;28;20187;-89
2023/07/24 05:24:36;;;;;;;40.65;37.83;;;17.90;92.30;;;;;;5071565;28;20245;-89
2023/07/24 05:27:03;;;;;;;41.33;38.22;;;17.90;92.00;;;;;;5071716;28;20183;-89
2023/07/24 05:29:29;;;;;;;42.38;39.33;;;17.90;91.90;;;;;;5071603;28;20230;-89
2023/07/24 05:31:54;;;;;;;40.92;38.17;;;17.90;91.90;;;;;;5071925;28;20167;-88
2023/07/24 05:34:20;;;;;;;41.40;38.60;;;17.80;91.70;;;;;;5071543;28;20707;-89
2023/07/24 05:36:45;;;;;;;41.72;38.83;;;17.80;91.70;;;;;;5071496;28;20520;-88
2023/07/24 05:39:11;;;;;;;42.05;39.05;;;17.80;92.00;;;;;;5071513;28;20682;-89
2023/07/24 05:41:36;;;;;;;40.05;36.70;;;17.80;91.70;;;;;;5071708;28;20190;-89
2023/07/24 05:44:02;;;;;;;41.25;37.85;;;17.80;91.80;;;;;;5072608;28;20679;-89
2023/07/24 05:46:27;;;;;;;41.35;38.42;;;17.80;91.80;;;;;;5071974;28;20191;-89
2023/07/24 05:48:53;;;;;;;40.58;37.38;;;17.80;91.60;;;;;;5072887;28;20258;-89
2023/07/24 05:51:18;;;;;;;40.10;37.13;;;17.80;91.60;;;;;;5075256;28;20176;-88
2023/07/24 05:53:44;;;;;;;41.58;38.58;;;17.80;91.50;;;;;;5075030;28;20199;-89
2023/07/24 05:56:09;;;;;;;41.28;38.33;;;17.80;91.50;;;;;;5075084;28;20203;-89
2023/07/24 05:58:35;;;;;;;40.35;37.08;;;17.80;91.50;;;;;;5076114;28;20195;-89
2023/07/24 06:01:00;;;;;;;37.90;35.22;;;17.80;91.60;;;;;;5075012;28;20706;-89
2023/07/24 06:03:26;;;;;;;40.60;37.65;;;17.80;91.20;;;;;;5074929;28;20195;-88
2023/07/24 06:05:53;;;;;;;40.17;37.13;;;17.80;91.20;;;;;;5075211;28;20171;-89
2023/07/24 06:08:19;;;;;;;40.28;37.15;;;17.70;91.20;;;;;;5074917;28;20176;-89
2023/07/24 06:10:47;;;;;;;39.45;36.53;;;17.80;91.30;;;;;;5074793;28;20199;-90
2023/07/24 06:13:13;;;;;;;39.83;36.95;;;17.80;91.50;;;;;;5074741;28;20622;-90
2023/07/24 06:15:38;;;;;;;37.95;34.85;;;17.80;91.60;;;;;;5075080;28;20207;-89
2023/07/24 06:18:04;;;;;;;37.10;34.50;;;17.80;91.50;;;;;;5074605;28;20552;-88
2023/07/24 06:20:29;;;;;;;37.50;34.88;;;17.80;91.30;;;;;;5074996;28;20639;-89
2023/07/24 06:22:55;;;;;;;40.50;37.60;;;17.80;91.30;;;;;;5074617;28;20180;-90
2023/07/24 06:25:20;;;;;;;39.42;36.63;;;17.90;91.50;;;;;;5075706;28;20187;-87
2023/07/24 06:27:46;;;;;;;37.63;35.08;;;17.90;91.50;;;;;;5074468;28;20656;-88
2023/07/24 06:30:11;;;;;;;37.05;34.15;;;17.90;91.70;;;;;;5075616;28;20226;-88
2023/07/24 06:32:37;;;;;;;36.67;34.15;;;17.90;91.50;;;;;;5074413;28;20271;-89
2023/07/24 06:35:02;;;;;;;39.08;36.35;;;18.00;91.40;;;;;;5074318;28;20195;-89
2023/07/24 06:37:28;;;;;;;36.10;33.53;;;18.00;91.30;;;;;;5074590;28;20171;-89
2023/07/24 06:39:53;;;;;;;38.45;35.72;;;18.00;91.10;;;;;;5074767;28;20201;-89
2023/07/24 06:42:19;;;;;;;38.20;35.50;;;18.00;91.20;;;;;;5074138;28;20717;-89
2023/07/24 06:44:44;;;;;;;36.90;34.28;;;18.10;91.20;;;;;;5074167;28;20281;-89
2023/07/24 06:47:10;;;;;;;34.40;32.00;;;18.00;90.80;;;;;;5074424;28;20278;-88
2023/07/24 06:49:35;;;;;;;35.15;32.50;;;18.10;91.10;;;;;;5075207;28;20242;-88
2023/07/24 06:52:01;;;;;;;34.10;31.70;;;18.00;90.80;;;;;;5074087;28;20266;-88
2023/07/24 06:54:27;;;;;;;35.85;33.00;;;18.00;90.60;;;;;;5073933;28;20274;-88
2023/07/24 06:56:52;;;;;;;35.58;32.80;;;18.10;90.90;;;;;;5074076;28;20635;-88
2023/07/24 06:59:18;;;;;;;35.67;33.17;;;18.10;91.10;;;;;;5074742;28;20220;-88
2023/07/24 07:01:43;;;;;;;33.67;31.40;;;18.10;90.80;;;;;;5075032;28;20172;-88
2023/07/24 07:04:09;;;;;;;34.05;31.42;;;18.20;91.00;;;;;;5073776;28;20191;-89
2023/07/24 07:06:34;;;;;;;35.75;32.95;;;18.10;90.50;;;;;;5073706;28;20677;-87
2023/07/24 07:09:00;;;;;;;35.95;33.17;;;18.10;90.30;;;;;;5073629;28;20687;-88
2023/07/24 07:11:25;;;;;;;34.10;31.52;;;18.20;90.40;;;;;;5074024;28;20175;-88
2023/07/24 07:13:51;;;;;;;34.88;32.38;;;18.20;90.10;;;;;;5073611;28;20195;-87
2023/07/24 07:16:18;;;;;;;34.80;32.35;;;18.20;90.10;;;;;;5073594;28;20168;-88
2023/07/24 07:18:44;;;;;;;31.55;29.13;;;18.20;90.40;;;;;;5073548;28;20293;-88
2023/07/24 07:21:10;;;;;;;33.30;30.77;;;18.30;90.40;;;;;;5073373;28;20714;-87
2023/07/24 07:23:35;;;;;;;31.55;29.42;;;18.30;90.60;;;;;;5073409;28;20206;-87
2023/07/24 07:26:01;;;;;;;32.45;30.15;;;18.30;90.50;;;;;;5073674;28;20696;-87
2023/07/24 07:28:27;;;;;;;32.53;30.13;;;18.20;90.20;;;;;;5074777;28;20171;-88
2023/07/24 07:30:54;;;;;;;33.47;31.10;;;18.30;90.30;;;;;;5073144;28;20203;-87
2023/07/24 07:33:21;;;;;;;32.33;29.63;;;18.30;90.10;;;;;;5073141;28;20175;-88
2023/07/24 07:35:47;;;;;;;30.58;28.38;;;18.20;89.90;;;;;;5073175;28;20171;-87
2023/07/24 07:38:13;;;;;;;34.38;31.70;;;18.30;89.70;;;;;;5073098;28;20303;-88
2023/07/24 07:40:41;;;;;;;31.10;28.83;;;18.30;89.80;;;;;;5073900;28;20176;-87
2023/07/24 07:43:07;;;;;;;31.45;28.92;;;18.30;89.40;;;;;;5072954;28;20269;-88
2023/07/24 07:45:32;;;;;;;31.55;29.25;;;18.30;89.60;;;;;;5074284;28;20205;-87
2023/07/24 07:47:58;;;;;;;30.80;28.50;;;18.30;89.60;;;;;;5074488;28;20176;-88
2023/07/24 07:50:24;;;;;;;30.25;27.92;;;18.40;89.60;;;;;;5074477;28;20202;-88
2023/07/24 07:52:51;;;;;;;31.73;29.30;;;18.50;89.60;;;;;;5073053;28;20178;-89
2023/07/24 07:55:17;;;;;;;30.58;28.05;;;18.40;89.40;;;;;;5073273;28;20190;-88
2023/07/24 07:57:42;;;;;;;30.05;27.70;;;18.40;89.10;;;;;;5073720;28;20171;-87
2023/07/24 08:00:08;;;;;;;30.40;28.20;;;18.50;89.40;;;;;;5072725;28;20187;-87
2023/07/24 08:02:34;;;;;;;47.33;44.03;;;18.50;89.70;;;;;;5072734;28;20179;-88
2023/07/24 08:05:00;;;;;;;47.95;44.75;;;18.50;89.80;;;;;;5072681;28;20191;-88
2023/07/24 08:07:26;;;;;;;49.08;45.90;;;18.50;89.40;;;;;;5072565;28;20175;-88
2023/07/24 08:09:51;;;;;;;50.83;47.03;;;18.50;89.60;;;;;;5072529;28;20199;-87
2023/07/24 08:12:17;;;;;;;49.95;46.40;;;18.50;89.40;;;;;;5071875;28;20250;-88
2023/07/24 08:14:42;;;;;;;46.90;43.70;;;18.50;89.70;;;;;;5072325;28;20202;-88
2023/07/24 08:17:08;;;;;;;50.30;46.60;;;18.60;89.60;;;;;;5073900;28;20171;-87
2023/07/24 08:19:33;;;;;;;50.15;46.60;;;18.50;89.70;;;;;;5072429;28;20670;-87
2023/07/24 08:21:59;;;;;;;50.13;46.90;;;18.50;89.80;;;;;;5072241;28;20676;-87
2023/07/24 08:24:25;;;;;;;50.10;46.63;;;18.40;89.60;;;;;;5073503;28;20241;-87
2023/07/24 08:26:50;;;;;;;53.25;49.55;;;18.30;89.30;;;;;;5073886;28;20642;-87
2023/07/24 08:29:16;;;;;;;51.35;47.85;;;18.30;89.30;;;;;;5073467;28;20195;-87
2023/07/24 08:31:41;;;;;;;52.50;48.63;;;18.30;89.50;;;;;;5073738;28;20542;-88
2023/07/24 08:34:07;;;;;;;31.30;29.10;;;18.20;89.80;;;;;;5073477;28;20254;-88
2023/07/24 08:36:32;;;;;;;30.23;28.05;;;18.30;89.90;;;;;;5072593;28;20163;-88
2023/07/24 08:38:58;;;;;;;31.17;29.02;;;18.30;90.30;;;;;;5073720;28;20163;-89
2023/07/24 08:41:23;;;;;;;31.95;29.65;;;18.30;90.20;;;;;;5072322;28;20179;-87
2023/07/24 08:43:51;;;;;;;29.70;27.25;;;18.30;90.30;;;;;;5072087;28;20244;-87
2023/07/24 08:46:18;;;;;;;30.95;28.75;;;18.30;90.60;;;;;;5072086;28;20179;-88
2023/07/24 08:48:44;;;;;;;31.40;29.05;;;18.30;90.70;;;;;;5072220;28;20726;-87
2023/07/24 08:51:12;;;;;;;33.22;30.63;;;18.40;90.90;;;;;;5071972;28;20241;-88
2023/07/24 08:53:39;;;;;;;31.27;28.88;;;18.40;90.50;;;;;;5072003;28;20761;-88
2023/07/24 08:56:07;;;;;;;32.63;30.23;;;18.40;89.80;;;;;;5073181;28;20175;-87
2023/07/24 08:58:34;;;;;;;32.28;29.77;;;18.60;90.20;;;;;;5072246;28;20182;-88
2023/07/24 09:01:01;;;;;;;30.95;28.65;;;18.70;90.10;;;;;;5073212;28;20178;-87
2023/07/24 09:03:27;;;;;;;32.22;29.83;;;18.80;89.50;;;;;;5071886;28;20207;-87
2023/07/24 09:05:53;;;;;;;31.83;28.85;;;18.80;89.20;;;;;;5073105;28;20167;-87
2023/07/24 09:08:40;;;;;;;31.83;29.23;;;19.00;89.20;;;;;;5071810;28;20567;-88
2023/07/24 09:11:06;;;;;;;30.10;27.70;;;19.10;88.70;;;;;;5071713;28;20769;-87
2023/07/24 09:13:33;;;;;;;28.50;26.30;;;19.20;88.60;;;;;;5071784;28;20195;-87
2023/07/24 09:15:59;;;;;;;28.67;26.58;;;19.10;87.10;;;;;;5071779;28;20552;-88
2023/07/24 09:18:25;;;;;;;28.83;26.30;;;19.20;87.60;;;;;;5073299;28;20259;-87
2023/07/24 09:20:50;;;;;;;28.17;25.85;;;19.20;86.80;;;;;;5072911;28;20190;-90
2023/07/24 09:23:28;;;;;;;27.55;25.48;;;19.30;86.40;;;;;;5076859;28;20181;-90
2023/07/24 09:25:54;;;;;;;27.08;25.02;;;19.20;86.00;;;;;;5077661;28;20159;-88
2023/07/24 09:28:20;;;;;;;25.98;24.08;;;19.20;86.10;;;;;;5075862;28;20179;-89
2023/07/24 09:30:57;;;;;;;26.60;24.50;;;19.20;86.20;;;;;;5075930;28;20706;-88
2023/07/24 09:33:37;;;;;;;27.00;24.65;;;19.20;86.30;;;;;;5077496;28;20193;-89
2023/07/24 09:36:08;;;;;;;26.60;24.40;;;19.30;85.90;;;;;;5077227;28;20220;-88
2023/07/24 09:38:34;;;;;;;25.10;22.92;;;19.30;85.70;;;;;;5076718;28;20235;-89
2023/07/24 09:41:03;;;;;;;25.98;24.08;;;19.40;86.00;;;;;;5076839;28;20171;-89
2023/07/24 09:43:29;;;;;;;26.48;24.13;;;19.30;85.70;;;;;;5076308;28;20211;-89
2023/07/24 09:45:56;;;;;;;24.15;22.05;;;19.50;86.30;;;;;;5075687;28;20682;-88
2023/07/24 09:48:24;;;;;;;24.80;22.90;;;19.90;85.60;;;;;;5075525;28;20186;-89
2023/07/24 09:50:59;;;;;;;25.55;23.45;;;20.00;84.80;;;;;;5075488;28;20671;-89
2023/07/24 09:53:48;;;;;;;26.20;24.27;;;19.90;84.50;;;;;;5076943;28;20162;-89
2023/07/24 09:56:15;;;;;;;25.52;23.25;;;19.70;84.10;;;;;;5076691;28;20178;-89
2023/07/24 09:58:41;;;;;;;25.40;23.40;;;19.70;84.90;;;;;;5075296;28;20639;-89
2023/07/24 10:01:08;;;;;;;24.95;22.92;;;19.80;85.30;;;;;;5075228;28;20565;-88
2023/07/24 10:03:46;;;;;;;24.35;22.27;;;19.90;84.90;;;;;;5075282;28;20697;-89
2023/07/24 10:06:14;;;;;;;23.25;21.45;;;20.30;84.00;;;;;;5075181;28;20179;-89
2023/07/24 10:08:41;;;;;;;23.45;21.40;;;20.30;81.80;;;;;;5075208;28;20321;-88
2023/07/24 10:11:09;;;;;;;24.45;22.55;;;20.30;82.80;;;;;;5076527;28;20203;-88
2023/07/24 10:13:36;;;;;;;24.63;22.42;;;20.30;82.90;;;;;;5074749;28;20281;-90
2023/07/24 10:16:06;;;;;;;22.65;20.77;;;20.20;82.60;;;;;;5075144;28;20176;-88
2023/07/24 10:18:32;;;;;;;20.52;19.02;;;20.30;82.70;;;;;;5076653;28;20635;-88
2023/07/24 10:21:07;;;;;;;22.38;20.38;;;20.50;82.70;;;;;;5076086;28;20572;-89
2023/07/24 10:23:46;;;;;;;22.88;20.73;;;20.70;83.10;;;;;;5075647;28;20202;-88
2023/07/24 10:26:12;;;;;;;21.30;19.50;;;20.30;82.00;;;;;;5075660;28;20183;-89
2023/07/24 10:28:39;;;;;;;22.13;20.33;;;20.40;83.20;;;;;;5075154;28;20179;-89
2023/07/24 10:31:10;;;;;;;21.38;19.77;;;20.40;82.10;;;;;;5074903;28;20705;-88
2023/07/24 10:33:43;;;;;;;21.25;19.55;;;20.40;81.10;;;;;;5075013;28;20196;-88
2023/07/24 10:36:10;;;;;;;22.75;20.85;;;20.60;81.70;;;;;;5075124;28;20167;-88
2023/07/24 10:38:43;;;;;;;22.73;20.48;;;20.70;80.60;;;;;;5074649;28;20578;-88
2023/07/24 10:41:10;;;;;;;21.23;19.63;;;21.10;80.30;;;;;;5074506;28;20711;-88
2023/07/24 10:43:46;;;;;;;20.80;19.20;;;21.30;78.50;;;;;;5075573;28;20721;-88
2023/07/24 10:46:13;;;;;;;22.35;20.48;;;21.40;78.20;;;;;;5074720;28;20175;-88
2023/07/24 10:48:43;;;;;;;21.00;19.13;;;21.30;77.30;;;;;;5074227;28;20658;-87
2023/07/24 10:51:09;;;;;;;21.65;20.10;;;21.50;76.90;;;;;;5074052;28;20202;-87
2023/07/24 10:53:37;;;;;;;23.17;21.38;;;21.60;78.40;;;;;;5073997;28;20623;-88
2023/07/24 10:56:04;;;;;;;20.98;19.45;;;21.60;76.20;;;;;;5074028;28;20300;-87
2023/07/24 10:58:31;;;;;;;23.35;21.35;;;21.60;76.50;;;;;;5074295;28;20179;-88
2023/07/24 11:00:57;;;;;;;22.60;20.83;;;21.50;76.10;;;;;;5074535;28;20175;-88
2023/07/24 11:03:24;;;;;;;20.45;18.67;;;21.30;76.40;;;;;;5074352;28;20591;-87
2023/07/24 11:05:49;;;;;;;21.77;20.15;;;21.70;77.90;;;;;;5074053;28;20180;-87
2023/07/24 11:08:19;;;;;;;22.00;20.15;;;22.20;76.40;;;;;;5073793;28;20550;-88
2023/07/24 11:10:49;;;;;;;22.13;20.42;;;22.20;76.00;;;;;;5073963;28;20321;-86
2023/07/24 11:13:16;;;;;;;22.75;20.98;;;22.00;76.60;;;;;;5073604;28;20182;-88
2023/07/24 11:15:42;;;;;;;22.75;20.83;;;22.10;76.30;;;;;;5073871;28;20175;-88
2023/07/24 11:18:10;;;;;;;22.55;20.48;;;22.00;73.80;;;;;;5074971;28;20191;-87
2023/07/24 11:20:44;;;;;;;22.45;20.75;;;22.40;74.80;;;;;;5074671;28;20175;-88
2023/07/24 11:23:10;;;;;;;22.52;20.67;;;22.00;73.40;;;;;;5073502;28;20203;-87
2023/07/24 11:25:37;;;;;;;21.90;20.30;;;22.10;74.10;;;;;;5073720;28;20617;-90
2023/07/24 11:28:05;;;;;;;23.60;21.75;;;22.40;73.50;;;;;;5074529;28;20228;-89
2023/07/24 11:30:31;;;;;;;22.83;20.77;;;22.30;72.70;;;;;;5074861;28;20252;-90
2023/07/24 11:33:00;;;;;;;22.58;20.77;;;22.70;72.90;;;;;;5074735;28;20171;-87
2023/07/24 11:35:26;;;;;;;21.80;20.25;;;22.30;73.60;;;;;;5073744;28;20195;-86
2023/07/24 11:37:52;;;;;;;22.67;20.92;;;22.50;72.90;;;;;;5073074;28;20178;-86
2023/07/24 11:40:19;;;;;;;22.50;20.73;;;22.70;73.30;;;;;;5072968;28;20528;-86
2023/07/24 11:42:47;;;;;;;23.63;21.88;;;22.80;72.60;;;;;;5073080;28;20183;-86
2023/07/24 11:45:13;;;;;;;24.40;22.38;;;22.80;72.20;;;;;;5073933;28;20280;-86
2023/07/24 11:47:56;;;;;;;23.38;21.55;;;22.70;70.70;;;;;;5073828;28;20210;-86
2023/07/24 11:50:23;;;;;;;22.27;20.60;;;22.40;71.70;;;;;;5073050;28;20284;-86
2023/07/24 11:52:51;;;;;;;22.45;20.65;;;22.30;73.00;;;;;;5074450;28;20225;-86
2023/07/24 11:55:30;;;;;;;22.55;20.70;;;22.50;71.50;;;;;;5073547;28;20199;-86
2023/07/24 11:58:00;;;;;;;21.90;20.40;;;22.90;71.00;;;;;;5074032;28;20162;-87
2023/07/24 12:00:27;;;;;;;22.15;20.27;;;23.50;72.30;;;;;;5073933;28;20194;-87
2023/07/24 12:02:58;;;;;;;21.25;19.42;;;23.20;69.30;;;;;;5072945;28;20179;-87
2023/07/24 12:05:24;;;;;;;20.33;18.75;;;23.60;71.90;;;;;;5072564;28;20759;-87
2023/07/24 12:07:49;;;;;;;21.35;19.65;;;23.80;70.50;;;;;;5072385;28;20179;-87
2023/07/24 12:10:28;;;;;;;22.00;20.02;;;23.80;68.00;;;;;;5073724;28;20704;-87
2023/07/24 12:12:57;;;;;;;22.30;20.45;;;23.40;67.60;;;;;;5073717;28;20619;-87
2023/07/24 12:15:23;;;;;;;22.30;20.70;;;23.60;68.60;;;;;;5072344;28;20194;-87
2023/07/24 12:17:49;;;;;;;22.42;20.92;;;23.60;68.20;;;;;;5072348;28;20175;-87
2023/07/24 12:20:14;;;;;;;22.75;21.02;;;23.20;68.30;;;;;;5073542;28;20187;-87
2023/07/24 12:22:41;;;;;;;22.35;20.75;;;22.80;70.00;;;;;;5072201;28;20199;-87
2023/07/24 12:25:06;;;;;;;22.92;21.23;;;23.50;70.70;;;;;;5072200;28;20202;-87